createdAt,value
2019-02-18T00:00:42.081Z,82.93
2019-02-18T00:03:10.700Z,83.49
2019-02-18T00:08:40.268Z,83.62
2019-02-18T00:11:08.501Z,83.62
2019-02-18T00:13:36.986Z,83.23
2019-02-18T00:19:06.405Z,86.04
2019-02-18T00:21:34.932Z,85.15
2019-02-18T00:24:03.058Z,82.75
2019-02-18T00:26:31.741Z,82.67
2019-02-18T00:28:59.629Z,84.56
2019-02-18T00:31:27.920Z,84.84
2019-02-18T00:34:08.578Z,84.13
2019-02-18T00:36:36.252Z,85.37
2019-02-18T00:39:05.343Z,85.56
2019-02-18T00:41:33.526Z,85.00
2019-02-18T00:44:01.435Z,85.68
2019-02-18T00:46:29.982Z,85.53
2019-02-18T00:48:58.598Z,85.13
2019-02-18T00:51:26.536Z,84.88
2019-02-18T00:53:55.180Z,84.96
2019-02-18T00:56:23.988Z,85.18
2019-02-18T00:58:52.339Z,85.20
2019-02-18T01:01:20.307Z,85.14
2019-02-18T01:03:48.583Z,85.83
2019-02-18T01:06:16.456Z,86.39
2019-02-18T01:08:44.817Z,85.81
2019-02-18T01:11:12.631Z,85.42
2019-02-18T01:13:40.774Z,85.78
2019-02-18T01:16:08.682Z,85.28
2019-02-18T01:18:36.581Z,85.11
2019-02-18T01:21:05.220Z,84.77
2019-02-18T01:23:33.109Z,85.84
2019-02-18T01:26:01.366Z,85.74
2019-02-18T01:28:29.659Z,85.44
2019-02-18T01:30:57.576Z,86.11
2019-02-18T01:33:26.155Z,86.03
2019-02-18T01:35:54.416Z,86.22
2019-02-18T01:38:22.641Z,86.94
2019-02-18T01:40:50.550Z,86.79
2019-02-18T01:43:18.948Z,86.68
2019-02-18T01:45:47.513Z,86.65
2019-02-18T01:48:15.392Z,85.85
2019-02-18T01:50:43.621Z,85.39
2019-02-18T01:53:11.870Z,86.37
2019-02-18T01:55:40.146Z,85.72
2019-02-18T01:58:08.524Z,85.49
2019-02-18T02:00:37.137Z,85.77
2019-02-18T02:03:05.708Z,85.03
2019-02-18T02:05:33.897Z,84.68
2019-02-18T02:08:02.485Z,84.66
2019-02-18T02:10:30.432Z,84.99
2019-02-18T02:13:37.086Z,85.61
2019-02-18T02:16:08.129Z,85.74
2019-02-18T02:18:35.901Z,86.28
2019-02-18T02:21:04.508Z,85.59
2019-02-18T02:23:33.091Z,85.85
2019-02-18T02:26:01.381Z,87.34
2019-02-18T02:28:29.987Z,87.20
2019-02-18T02:31:00.773Z,86.33
2019-02-18T02:33:34.919Z,85.93
2019-02-18T02:36:02.542Z,86.39
2019-02-18T02:38:31.105Z,86.17
2019-02-18T02:40:59.692Z,86.13
2019-02-18T02:43:28.260Z,86.03
2019-02-18T02:45:56.539Z,85.93
2019-02-18T02:48:24.417Z,85.17
2019-02-18T02:50:52.585Z,84.72
2019-02-18T02:53:21.129Z,84.68
2019-02-18T02:55:49.434Z,85.35
2019-02-18T02:58:17.837Z,85.68
2019-02-18T03:00:46.494Z,85.64
2019-02-18T03:03:15.129Z,86.00
2019-02-18T03:05:43.348Z,86.22
2019-02-18T03:08:19.862Z,86.34
2019-02-18T03:10:48.373Z,86.17
2019-02-18T03:13:16.685Z,86.23
2019-02-18T03:15:45.332Z,86.27
2019-02-18T03:18:13.274Z,85.29
2019-02-18T03:20:41.582Z,85.42
2019-02-18T03:23:10.223Z,85.40
2019-02-18T03:25:38.413Z,86.77
2019-02-18T03:28:45.061Z,86.31
2019-02-18T03:31:32.678Z,86.06
2019-02-18T03:34:05.009Z,86.63
2019-02-18T03:36:33.239Z,86.58
2019-02-18T03:39:01.178Z,86.75
2019-02-18T03:41:29.381Z,86.23
2019-02-18T03:43:57.176Z,86.29
2019-02-18T03:46:25.083Z,86.68
2019-02-18T03:48:53.614Z,85.99
2019-02-18T03:51:21.889Z,85.69
2019-02-18T03:53:50.136Z,85.49
2019-02-18T03:56:18.773Z,85.55
2019-02-18T03:58:47.100Z,86.19
2019-02-18T04:01:15.335Z,87.16
2019-02-18T04:03:43.596Z,87.17
2019-02-18T04:06:11.817Z,86.42
2019-02-18T04:08:43.026Z,85.96
2019-02-18T04:11:17.137Z,85.96
2019-02-18T04:13:45.091Z,84.78
2019-02-18T04:16:13.385Z,86.50
2019-02-18T04:18:41.977Z,86.18
2019-02-18T04:21:10.499Z,85.79
2019-02-18T04:23:38.442Z,85.90
2019-02-18T04:26:06.968Z,86.93
2019-02-18T04:28:35.308Z,85.96
2019-02-18T04:31:03.896Z,85.85
2019-02-18T04:33:31.786Z,84.76
2019-02-18T04:36:00.041Z,84.72
2019-02-18T04:38:28.081Z,85.06
2019-02-18T04:40:56.758Z,84.79
2019-02-18T04:43:25.197Z,85.39
2019-02-18T04:45:53.436Z,86.40
2019-02-18T04:48:22.005Z,87.10
2019-02-18T04:50:50.784Z,86.61
2019-02-18T04:53:18.227Z,87.07
2019-02-18T04:55:45.406Z,86.89
2019-02-18T04:58:13.613Z,87.16
2019-02-18T05:00:41.853Z,87.35
2019-02-18T05:03:09.762Z,86.91
2019-02-18T05:05:38.001Z,85.87
2019-02-18T05:08:05.927Z,85.30
2019-02-18T05:10:34.247Z,85.26
2019-02-18T05:13:02.875Z,85.73
2019-02-18T05:15:31.438Z,85.90
2019-02-18T05:17:59.306Z,86.49
2019-02-18T05:20:27.892Z,86.69
2019-02-18T05:22:55.786Z,86.81
2019-02-18T05:25:24.368Z,86.65
2019-02-18T05:27:52.741Z,87.09
2019-02-18T05:30:20.958Z,87.34
2019-02-18T05:32:48.818Z,87.88
2019-02-18T05:35:16.773Z,87.78
2019-02-18T05:37:45.359Z,87.73
2019-02-18T05:40:13.238Z,87.15
2019-02-18T05:42:41.887Z,86.74
2019-02-18T05:45:10.028Z,87.18
2019-02-18T05:47:37.902Z,87.09
2019-02-18T05:50:06.466Z,87.22
2019-02-18T05:52:35.171Z,87.46
2019-02-18T05:55:03.239Z,87.17
2019-02-18T05:57:31.447Z,87.03
2019-02-18T05:59:59.994Z,87.09
2019-02-18T06:02:28.608Z,86.75
2019-02-18T06:04:56.076Z,86.36
2019-02-18T06:07:24.748Z,85.89
2019-02-18T06:09:53.013Z,85.50
2019-02-18T06:12:21.226Z,85.69
2019-02-18T06:14:49.809Z,86.57
2019-02-18T06:17:18.083Z,87.02
2019-02-18T06:19:46.631Z,87.38
2019-02-18T06:22:15.248Z,87.56
2019-02-18T06:24:43.452Z,87.51
2019-02-18T06:27:11.759Z,87.32
2019-02-18T06:29:40.318Z,87.31
2019-02-18T06:32:08.228Z,87.23
2019-02-18T06:34:36.794Z,87.25
2019-02-18T06:37:04.644Z,86.97
2019-02-18T06:39:40.649Z,86.98
2019-02-18T06:42:11.176Z,87.29
2019-02-18T06:47:31.941Z,87.17
2019-02-18T06:50:00.514Z,87.17
2019-02-18T06:52:29.043Z,86.75
2019-02-18T06:54:57.675Z,86.30
2019-02-18T06:57:44.948Z,86.04
2019-02-18T07:00:32.763Z,86.10
2019-02-18T07:03:19.919Z,85.69
2019-02-18T07:05:54.388Z,85.97
2019-02-18T07:08:42.217Z,86.51
2019-02-18T07:11:29.940Z,86.69
2019-02-18T07:13:58.563Z,86.88
2019-02-18T07:16:26.807Z,86.24
2019-02-18T07:18:54.689Z,85.92
2019-02-18T07:21:22.983Z,85.62
2019-02-18T07:23:50.738Z,85.25
2019-02-18T07:26:19.262Z,85.25
2019-02-18T07:28:47.729Z,86.12
2019-02-18T07:31:15.938Z,86.34
2019-02-18T07:33:43.505Z,86.50
2019-02-18T07:36:12.156Z,86.76
2019-02-18T07:38:39.717Z,86.48
2019-02-18T07:41:08.003Z,87.07
2019-02-18T07:43:36.600Z,86.94
2019-02-18T07:46:05.183Z,86.62
2019-02-18T07:48:33.731Z,86.23
2019-02-18T07:51:02.367Z,85.88
2019-02-18T07:53:30.888Z,85.16
2019-02-18T07:55:59.599Z,84.69
2019-02-18T07:58:28.224Z,84.40
2019-02-18T08:00:56.772Z,84.22
2019-02-18T08:03:25.492Z,84.05
2019-02-18T08:05:54.033Z,84.36
2019-02-18T08:08:22.579Z,84.71
2019-02-18T08:10:51.391Z,84.90
2019-02-18T08:13:20.003Z,85.32
2019-02-18T08:15:48.249Z,85.16
2019-02-18T08:18:16.802Z,84.19
2019-02-18T08:20:45.167Z,82.71
2019-02-18T08:23:13.825Z,82.19
2019-02-18T08:25:42.116Z,81.75
2019-02-18T08:28:10.388Z,81.64
2019-02-18T08:30:38.663Z,81.60
2019-02-18T08:33:06.977Z,81.63
2019-02-18T08:35:34.907Z,81.77
2019-02-18T08:38:03.359Z,81.82
2019-02-18T08:40:31.902Z,81.85
2019-02-18T08:43:00.265Z,81.79
2019-02-18T08:45:28.859Z,82.05
2019-02-18T08:47:56.768Z,81.98
2019-02-18T08:50:25.418Z,81.39
2019-02-18T08:52:54.004Z,80.61
2019-02-18T08:55:21.944Z,79.55
2019-02-18T08:57:50.690Z,79.15
2019-02-18T09:00:18.432Z,78.88
2019-02-18T09:02:46.692Z,78.79
2019-02-18T09:05:15.391Z,78.32
2019-02-18T09:07:44.013Z,76.75
2019-02-18T09:10:12.097Z,76.42
2019-02-18T09:12:40.834Z,75.40
2019-02-18T09:15:09.574Z,75.54
2019-02-18T09:17:38.090Z,74.17
2019-02-18T09:20:07.044Z,74.08
2019-02-18T09:22:54.863Z,73.70
2019-02-18T09:28:06.393Z,73.76
2019-02-18T09:33:31.684Z,71.52
2019-02-18T09:36:00.674Z,70.44
2019-02-18T09:38:28.554Z,68.98
2019-02-18T09:40:56.552Z,67.89
2019-02-18T09:43:24.798Z,65.73
2019-02-18T09:45:53.085Z,62.66
2019-02-18T09:48:21.818Z,60.85
2019-02-18T09:50:50.090Z,59.34
2019-02-18T09:53:18.534Z,57.18
2019-02-18T09:55:46.858Z,52.76
2019-02-18T09:58:14.842Z,53.45
2019-02-18T10:00:43.483Z,52.78
2019-02-18T10:03:11.824Z,52.40
2019-02-18T10:05:40.506Z,51.41
2019-02-18T10:08:08.800Z,49.01
2019-02-18T10:10:37.073Z,47.62
2019-02-18T10:13:05.048Z,46.68
2019-02-18T10:15:33.318Z,46.64
2019-02-18T10:18:02.014Z,46.60
2019-02-18T10:20:29.998Z,42.90
2019-02-18T10:22:58.629Z,43.03
2019-02-18T10:25:27.370Z,41.93
2019-02-18T10:27:55.872Z,39.77
2019-02-18T10:30:24.665Z,37.16
2019-02-18T10:32:53.045Z,32.66
2019-02-18T10:35:21.428Z,30.74
2019-02-18T10:37:55.087Z,29.58
2019-02-18T10:40:25.809Z,29.08
2019-02-18T10:43:06.585Z,29.29
2019-02-18T10:45:34.580Z,29.29
2019-02-18T10:48:02.684Z,29.96
2019-02-18T10:50:31.074Z,28.30
2019-02-18T10:53:08.022Z,28.80
2019-02-18T10:58:19.078Z,30.69
2019-02-18T11:00:47.377Z,29.84
2019-02-18T11:03:15.286Z,29.72
2019-02-18T11:05:44.045Z,30.76
2019-02-18T11:08:12.508Z,29.99
2019-02-18T11:10:40.791Z,32.21
2019-02-18T11:13:09.593Z,31.92
2019-02-18T11:15:38.350Z,30.74
2019-02-18T11:18:07.225Z,30.23
2019-02-18T11:20:36.022Z,28.98
2019-02-18T11:23:05.044Z,27.40
2019-02-18T11:25:33.423Z,27.33
2019-02-18T11:28:01.761Z,27.36
2019-02-18T11:30:29.825Z,28.00
2019-02-18T11:32:58.646Z,28.10
2019-02-18T11:35:26.955Z,25.89
2019-02-18T11:37:54.944Z,24.07
2019-02-18T11:40:23.216Z,22.36
2019-02-18T11:42:52.349Z,22.76
2019-02-18T11:45:20.215Z,22.02
2019-02-18T11:47:48.688Z,24.04
2019-02-18T11:50:17.375Z,26.28
2019-02-18T11:52:45.663Z,26.99
2019-02-18T11:55:13.818Z,25.40
2019-02-18T11:57:42.523Z,22.35
2019-02-18T12:00:11.327Z,22.96
2019-02-18T12:02:40.204Z,21.56
2019-02-18T12:05:08.820Z,21.40
2019-02-18T12:07:40.220Z,21.55
2019-02-18T12:10:09.024Z,21.99
2019-02-18T12:12:38.079Z,21.01
2019-02-18T12:15:07.131Z,21.72
2019-02-18T12:17:35.544Z,19.66
2019-02-18T12:20:03.813Z,19.06
2019-02-18T12:22:32.581Z,18.76
2019-02-18T12:25:00.851Z,17.22
2019-02-18T12:27:32.069Z,16.78
2019-02-18T12:30:06.243Z,17.33
2019-02-18T12:32:34.530Z,17.87
2019-02-18T12:35:03.139Z,17.37
2019-02-18T12:37:31.511Z,19.94
2019-02-18T12:40:00.378Z,18.85
2019-02-18T12:42:28.660Z,20.20
2019-02-18T12:45:16.018Z,22.02
2019-02-18T12:47:44.800Z,22.02
2019-02-18T12:50:13.524Z,22.31
2019-02-18T12:52:42.285Z,21.85
2019-02-18T12:55:10.378Z,20.40
2019-02-18T12:57:47.044Z,21.69
2019-02-18T13:00:34.327Z,20.89
2019-02-18T13:03:14.365Z,17.00
2019-02-18T13:05:42.574Z,17.00
2019-02-18T13:08:10.475Z,22.34
2019-02-18T13:10:39.269Z,18.20
2019-02-18T13:13:07.642Z,17.76
2019-02-18T13:15:35.622Z,21.11
2019-02-18T13:20:32.424Z,21.98
2019-02-18T13:23:00.349Z,18.90
2019-02-18T13:25:29.050Z,17.87
2019-02-18T13:28:16.359Z,21.05
2019-02-18T13:30:55.697Z,19.97
2019-02-18T13:33:23.673Z,23.90
2019-02-18T13:36:00.391Z,18.13
2019-02-18T13:38:29.111Z,21.27
2019-02-18T13:40:57.015Z,17.45
2019-02-18T13:43:25.780Z,19.92
2019-02-18T13:45:54.426Z,17.57
2019-02-18T13:48:23.167Z,17.91
2019-02-18T13:50:51.914Z,17.24
2019-02-18T13:53:19.854Z,20.36
2019-02-18T13:55:48.036Z,19.25
2019-02-18T13:58:16.606Z,16.13
2019-02-18T14:00:44.889Z,16.01
2019-02-18T14:03:13.493Z,15.13
2019-02-18T14:05:42.343Z,16.74
2019-02-18T14:08:10.368Z,22.69
2019-02-18T14:10:39.161Z,18.18
2019-02-18T14:13:07.013Z,17.27
2019-02-18T14:15:35.306Z,16.71
2019-02-18T14:18:03.495Z,13.58
2019-02-18T14:20:31.713Z,14.85
2019-02-18T14:22:59.651Z,14.33
2019-02-18T14:25:27.903Z,12.44
2019-02-18T14:27:55.808Z,12.68
2019-02-18T14:30:43.355Z,13.84
2019-02-18T14:33:11.200Z,15.88
2019-02-18T14:35:39.254Z,16.26
2019-02-18T14:38:07.140Z,12.86
2019-02-18T14:40:35.527Z,16.12
2019-02-18T14:43:03.518Z,19.89
2019-02-18T14:45:31.985Z,17.58
2019-02-18T14:48:00.274Z,18.40
2019-02-18T14:50:36.548Z,20.46
2019-02-18T14:53:05.025Z,19.13
2019-02-18T14:55:33.310Z,19.49
2019-02-18T14:58:01.240Z,20.59
2019-02-18T15:00:29.850Z,18.93
2019-02-18T15:02:58.089Z,19.42
2019-02-18T15:05:26.226Z,19.37
2019-02-18T15:07:54.769Z,17.60
2019-02-18T15:10:23.414Z,17.28
2019-02-18T15:12:51.219Z,15.59
2019-02-18T15:15:19.150Z,15.56
2019-02-18T15:17:47.439Z,14.63
2019-02-18T15:20:15.724Z,16.05
2019-02-18T15:22:42.919Z,16.58
2019-02-18T15:25:30.495Z,16.78
2019-02-18T15:27:58.515Z,17.24
2019-02-18T15:30:27.374Z,18.24
2019-02-18T15:32:55.959Z,19.11
2019-02-18T15:35:24.249Z,19.92
2019-02-18T15:37:52.265Z,19.34
2019-02-18T15:43:16.942Z,20.03
2019-02-18T15:45:45.296Z,21.00
2019-02-18T15:48:13.678Z,20.57
2019-02-18T15:50:41.613Z,20.47
2019-02-18T15:53:10.314Z,21.42
2019-02-18T15:59:01.935Z,20.50
2019-02-18T16:01:29.560Z,20.41
2019-02-18T16:04:05.864Z,22.03
2019-02-18T16:06:33.925Z,26.14
2019-02-18T16:09:02.470Z,30.25
2019-02-18T16:11:30.730Z,32.99
2019-02-18T16:13:58.724Z,35.74
2019-02-18T16:16:26.786Z,38.43
2019-02-18T16:19:03.074Z,40.92
2019-02-18T16:21:31.863Z,42.54
2019-02-18T16:24:00.149Z,44.11
2019-02-18T16:26:28.373Z,45.09
2019-02-18T16:28:56.196Z,45.47
2019-02-18T16:31:24.859Z,46.34
2019-02-18T16:33:53.502Z,47.62
2019-02-18T16:36:21.941Z,49.11
2019-02-18T16:38:58.825Z,50.21
2019-02-18T16:41:27.432Z,50.48
2019-02-18T16:43:55.718Z,51.81
2019-02-18T16:46:24.596Z,53.36
2019-02-18T16:49:04.366Z,52.47
2019-02-18T16:51:32.885Z,54.05
2019-02-18T16:54:01.676Z,54.27
2019-02-18T16:56:30.438Z,55.22
2019-02-18T16:58:59.351Z,56.36
2019-02-18T17:01:28.006Z,57.53
2019-02-18T17:03:56.704Z,57.67
2019-02-18T17:06:25.088Z,58.78
2019-02-18T17:08:53.060Z,59.58
2019-02-18T17:11:21.426Z,60.13
2019-02-18T17:13:49.594Z,60.98
2019-02-18T17:16:17.790Z,61.87
2019-02-18T17:18:46.390Z,61.70
2019-02-18T17:21:14.874Z,60.54
2019-02-18T17:23:43.161Z,61.71
2019-02-18T17:26:11.435Z,61.92
2019-02-18T17:28:39.449Z,62.05
2019-02-18T17:31:07.910Z,62.91
2019-02-18T17:33:36.435Z,64.15
2019-02-18T17:36:04.374Z,63.92
2019-02-18T17:38:32.554Z,64.41
2019-02-18T17:41:01.545Z,65.08
2019-02-18T17:43:29.390Z,65.02
2019-02-18T17:45:58.003Z,65.76
2019-02-18T17:48:34.655Z,66.55
2019-02-18T17:51:02.963Z,66.85
2019-02-18T17:53:30.935Z,67.95
2019-02-18T17:55:59.125Z,68.20
2019-02-18T17:58:27.499Z,68.51
2019-02-18T18:03:51.299Z,68.81
2019-02-18T18:06:19.166Z,68.74
2019-02-18T18:08:47.576Z,68.56
2019-02-18T18:11:15.521Z,69.97
2019-02-18T18:13:55.219Z,69.61
2019-02-18T18:16:23.453Z,69.45
2019-02-18T18:18:51.714Z,68.27
2019-02-18T18:21:19.730Z,70.11
2019-02-18T18:23:48.410Z,69.22
2019-02-18T18:26:16.784Z,69.84
2019-02-18T18:28:45.054Z,69.32
2019-02-18T18:31:12.570Z,70.11
2019-02-18T18:33:40.603Z,70.15
2019-02-18T18:36:09.205Z,70.12
2019-02-18T18:38:37.500Z,71.31
2019-02-18T18:41:05.789Z,71.09
2019-02-18T18:43:42.819Z,70.95
2019-02-18T18:46:10.761Z,71.26
2019-02-18T18:48:39.520Z,71.78
2019-02-18T18:51:07.789Z,71.19
2019-02-18T18:53:36.488Z,72.27
2019-02-18T18:56:04.860Z,72.05
2019-02-18T18:58:33.489Z,73.04
2019-02-18T19:01:01.824Z,71.33
2019-02-18T19:03:30.103Z,71.40
2019-02-18T19:05:58.403Z,72.21
2019-02-18T19:08:26.986Z,71.66
2019-02-18T19:10:54.929Z,71.67
2019-02-18T19:13:31.163Z,71.34
2019-02-18T19:15:59.205Z,72.30
2019-02-18T19:18:27.506Z,72.23
2019-02-18T19:20:55.866Z,73.23
2019-02-18T19:23:23.475Z,72.64
2019-02-18T19:25:51.921Z,71.82
2019-02-18T19:28:19.808Z,72.14
2019-02-18T19:30:48.094Z,72.26
2019-02-18T19:33:16.855Z,72.59
2019-02-18T19:35:44.937Z,73.35
2019-02-18T19:38:13.038Z,73.93
2019-02-18T19:40:41.422Z,74.17
2019-02-18T19:43:09.209Z,74.21
2019-02-18T19:45:36.781Z,74.45
2019-02-18T19:48:04.724Z,74.84
2019-02-18T19:50:32.295Z,74.62
2019-02-18T19:53:00.590Z,74.03
2019-02-18T19:55:28.942Z,72.63
2019-02-18T19:58:05.593Z,72.02
2019-02-18T20:00:33.900Z,72.56
2019-02-18T20:03:02.571Z,72.06
2019-02-18T20:05:30.930Z,72.84
2019-02-18T20:07:59.297Z,73.62
2019-02-18T20:10:27.654Z,73.91
2019-02-18T20:12:56.435Z,73.44
2019-02-18T20:15:25.156Z,74.14
2019-02-18T20:17:53.704Z,75.83
2019-02-18T20:20:22.373Z,76.55
2019-02-18T20:22:50.676Z,75.95
2019-02-18T20:25:18.985Z,76.63
2019-02-18T20:27:59.227Z,76.78
2019-02-18T20:30:28.020Z,76.70
2019-02-18T20:32:56.912Z,76.47
2019-02-18T20:35:25.222Z,75.82
2019-02-18T20:37:53.989Z,75.47
2019-02-18T20:40:22.990Z,74.69
2019-02-18T20:42:51.303Z,73.29
2019-02-18T20:45:18.959Z,73.75
2019-02-18T20:47:47.329Z,74.37
2019-02-18T20:50:15.615Z,75.64
2019-02-18T20:52:43.161Z,74.68
2019-02-18T20:55:11.145Z,75.37
2019-02-18T20:57:39.431Z,76.95
2019-02-18T21:02:52.926Z,77.93
2019-02-18T21:05:21.273Z,78.15
2019-02-18T21:07:49.514Z,78.06
2019-02-18T21:10:24.962Z,78.02
2019-02-18T21:12:53.619Z,77.18
2019-02-18T21:15:22.494Z,77.10
2019-02-18T21:17:51.161Z,77.29
2019-02-18T21:20:19.816Z,77.35
2019-02-18T21:22:48.685Z,77.51
2019-02-18T21:25:17.279Z,77.53
2019-02-18T21:27:45.960Z,78.95
2019-02-18T21:30:14.192Z,78.38
2019-02-18T21:32:42.563Z,78.02
2019-02-18T21:35:10.975Z,78.51
2019-02-18T21:37:39.244Z,78.96
2019-02-18T21:40:27.195Z,79.25
2019-02-18T21:42:55.006Z,79.75
2019-02-18T21:45:24.063Z,80.06
2019-02-18T21:47:52.860Z,79.88
2019-02-18T21:50:22.124Z,80.00
2019-02-18T21:52:50.748Z,80.96
2019-02-18T21:55:19.062Z,81.13
2019-02-18T21:58:06.909Z,80.03
2019-02-18T22:00:47.139Z,80.44
2019-02-18T22:06:31.765Z,80.33
2019-02-18T22:09:00.155Z,80.13
2019-02-18T22:11:29.304Z,81.45
2019-02-18T22:13:58.004Z,81.54
2019-02-18T22:16:26.551Z,81.09
2019-02-18T22:19:35.130Z,79.77
2019-02-18T22:22:03.738Z,80.24
2019-02-18T22:24:31.622Z,80.94
2019-02-18T22:26:59.796Z,78.96
2019-02-18T22:32:36.211Z,79.67
2019-02-18T22:35:04.441Z,80.64
2019-02-18T22:37:41.212Z,80.20
2019-02-18T22:40:21.155Z,80.33
2019-02-18T22:42:49.451Z,80.36
2019-02-18T22:45:17.771Z,79.58
2019-02-18T22:47:45.722Z,79.15
2019-02-18T22:50:22.530Z,79.47
2019-02-18T22:52:51.350Z,78.50
2019-02-18T22:55:20.013Z,78.53
2019-02-18T22:57:48.038Z,79.88
2019-02-18T23:03:37.357Z,80.50
2019-02-18T23:06:05.725Z,80.56
2019-02-18T23:08:34.404Z,79.10
2019-02-18T23:11:02.568Z,79.87
2019-02-18T23:13:30.809Z,80.67
2019-02-18T23:15:59.452Z,81.25
2019-02-18T23:18:27.727Z,81.24
2019-02-18T23:20:55.946Z,81.32
2019-02-18T23:23:23.888Z,80.92
2019-02-18T23:25:52.046Z,80.36
2019-02-18T23:28:20.512Z,79.91
2019-02-18T23:30:48.495Z,80.49
2019-02-18T23:33:16.707Z,80.37
2019-02-18T23:35:45.301Z,81.19
2019-02-18T23:38:13.921Z,81.03
2019-02-18T23:40:42.616Z,80.92
2019-02-18T23:43:10.850Z,78.53
2019-02-18T23:45:39.444Z,78.08
2019-02-18T23:48:07.874Z,78.33
2019-02-18T23:50:36.194Z,78.95
2019-02-18T23:53:04.221Z,79.85
2019-02-18T23:55:32.823Z,80.00
2019-02-18T23:58:01.140Z,80.01
